Time;durP1;ratioP1;P1;durP2;ratioP2;P2;SDS_P1;SDS_P2;PMS_P1;PMS_P2;Temp;Humidity;BMP_temperature;BMP_pressure;BME280_temperature;BME280_humidity;BME280_pressure;Samples;Min_cycle;Max_cycle;Signal;HPM_P1;HPM_P2
2022/06/21 00:00:39;;;;;;;2.83;2.10;;;22.70;90.40;;;;;;5091905;28;20583;-69
2022/06/21 00:03:09;;;;;;;2.50;2.00;;;22.70;90.30;;;;;;5103731;27;20641;-70
2022/06/21 00:05:38;;;;;;;3.47;2.20;;;22.60;90.30;;;;;;5132799;27;20680;-68
2022/06/21 00:08:08;;;;;;;3.40;2.20;;;22.60;90.30;;;;;;5132304;27;20715;-69
2022/06/21 00:10:35;;;;;;;2.53;2.10;;;22.60;90.30;;;;;;5132449;27;20587;-70
2022/06/21 00:13:03;;;;;;;4.87;2.53;;;22.60;90.30;;;;;;5127915;27;20290;-68
2022/06/21 00:15:30;;;;;;;3.43;2.20;;;22.60;90.60;;;;;;5132501;27;20313;-69
2022/06/21 00:17:58;;;;;;;2.50;1.97;;;22.60;90.20;;;;;;5132287;27;20199;-69
2022/06/21 00:20:27;;;;;;;3.37;2.40;;;22.50;90.10;;;;;;5132370;27;20203;-69
2022/06/21 00:22:54;;;;;;;3.13;1.87;;;22.60;90.10;;;;;;5132472;27;20207;-68
2022/06/21 00:25:24;;;;;;;2.43;2.03;;;22.50;90.00;;;;;;5131563;27;20231;-69
2022/06/21 00:27:52;;;;;;;5.10;2.57;;;22.50;90.00;;;;;;5130455;27;20253;-64
2022/06/21 00:30:19;;;;;;;4.83;2.33;;;22.50;90.00;;;;;;5131352;27;20263;-64
2022/06/21 00:32:49;;;;;;;2.40;1.90;;;22.50;89.80;;;;;;5132034;27;20628;-64
2022/06/21 00:35:20;;;;;;;3.83;2.00;;;22.50;89.40;;;;;;5131511;27;20205;-64
2022/06/21 00:37:47;;;;;;;5.10;1.97;;;22.50;89.30;;;;;;5132124;27;20293;-64
2022/06/21 00:40:21;;;;;;;4.97;2.33;;;22.50;89.20;;;;;;5131794;27;20208;-64
2022/06/21 00:42:53;;;;;;;3.13;2.03;;;22.50;89.30;;;;;;5128138;27;20282;-63
2022/06/21 00:45:27;;;;;;;2.23;1.80;;;22.40;89.20;;;;;;5124376;27;20218;-65
2022/06/21 00:47:57;;;;;;;2.90;2.03;;;22.40;89.40;;;;;;5118018;28;20204;-64
2022/06/21 00:50:31;;;;;;;3.93;1.80;;;22.50;89.40;;;;;;5131956;27;20246;-64
2022/06/21 00:53:03;;;;;;;3.53;1.83;;;22.40;89.10;;;;;;5131802;27;20601;-63
2022/06/21 00:55:40;;;;;;;4.20;1.90;;;22.30;88.90;;;;;;5131668;27;20183;-64
2022/06/21 00:58:10;;;;;;;3.50;1.93;;;22.30;88.90;;;;;;5131430;27;20187;-64
2022/06/21 01:00:44;;;;;;;4.40;1.93;;;22.30;88.80;;;;;;5127730;27;20221;-62
2022/06/21 01:03:18;;;;;;;5.33;1.97;;;22.30;88.70;;;;;;5131711;27;20282;-64
2022/06/21 01:05:47;;;;;;;2.37;1.97;;;22.30;88.70;;;;;;5131469;27;20281;-64
2022/06/21 01:08:22;;;;;;;4.23;2.10;;;22.30;88.60;;;;;;5130851;27;20199;-66
2022/06/21 01:10:52;;;;;;;2.47;1.63;;;22.30;88.40;;;;;;5124694;27;20202;-62
2022/06/21 01:13:23;;;;;;;2.23;2.00;;;22.30;88.20;;;;;;5135702;27;20210;-64
2022/06/21 01:15:51;;;;;;;4.37;2.13;;;22.30;88.10;;;;;;5135655;27;20530;-66
2022/06/21 01:18:22;;;;;;;3.10;1.93;;;22.40;88.00;;;;;;5135276;27;20203;-64
2022/06/21 01:20:53;;;;;;;2.30;1.90;;;22.40;87.80;;;;;;5135923;27;20187;-65
2022/06/21 01:23:30;;;;;;;4.00;2.33;;;22.30;87.70;;;;;;5133356;27;20230;-64
2022/06/21 01:26:12;;;;;;;3.47;2.07;;;22.30;87.70;;;;;;5135178;27;20651;-62
2022/06/21 01:28:41;;;;;;;4.23;1.97;;;22.30;87.90;;;;;;5135491;27;20266;-63
2022/06/21 01:31:09;;;;;;;2.50;2.00;;;22.30;87.90;;;;;;5134955;27;20699;-63
2022/06/21 01:33:39;;;;;;;2.23;1.97;;;22.30;88.00;;;;;;5135180;27;20203;-64
2022/06/21 01:36:09;;;;;;;2.13;1.87;;;22.20;88.00;;;;;;5131393;27;20325;-65
2022/06/21 01:38:41;;;;;;;5.00;1.87;;;22.20;88.00;;;;;;5135330;27;20585;-64
2022/06/21 01:41:11;;;;;;;3.50;2.00;;;22.20;88.10;;;;;;5135152;27;20188;-64
2022/06/21 01:43:43;;;;;;;2.40;1.93;;;22.20;88.00;;;;;;5135504;27;20263;-64
2022/06/21 01:46:15;;;;;;;2.80;2.10;;;22.20;88.10;;;;;;5135038;27;20190;-66
2022/06/21 01:48:46;;;;;;;2.80;1.90;;;22.20;88.00;;;;;;5134948;27;20191;-63
2022/06/21 01:51:18;;;;;;;2.50;1.87;;;22.20;88.20;;;;;;5129924;27;20222;-64
2022/06/21 01:53:45;;;;;;;3.37;2.07;;;22.20;88.20;;;;;;5134857;27;20277;-64
2022/06/21 01:56:16;;;;;;;3.70;2.30;;;22.20;88.40;;;;;;5135055;27;20209;-63
2022/06/21 01:58:49;;;;;;;2.20;1.80;;;22.20;88.30;;;;;;5135105;27;20384;-65
2022/06/21 02:01:21;;;;;;;2.43;2.03;;;22.10;88.30;;;;;;5130682;27;20194;-64
2022/06/21 02:03:53;;;;;;;3.23;2.20;;;22.10;88.60;;;;;;5130276;27;20191;-63
2022/06/21 02:06:23;;;;;;;3.77;2.20;;;22.10;88.80;;;;;;5115982;27;20361;-63
2022/06/21 02:08:54;;;;;;;3.83;2.33;;;22.10;88.90;;;;;;5133540;27;20294;-65
2022/06/21 02:11:25;;;;;;;5.47;2.03;;;22.10;88.80;;;;;;5134781;27;20267;-64
2022/06/21 02:16:40;;;;;;;6.30;2.17;;;22.10;89.20;;;;;;5122102;27;20199;-65
2022/06/21 02:19:15;;;;;;;2.70;2.00;;;22.10;88.80;;;;;;5133876;27;20199;-64
2022/06/21 02:21:42;;;;;;;4.00;2.17;;;22.10;89.00;;;;;;5134394;27;20208;-63
2022/06/21 02:24:13;;;;;;;2.90;2.00;;;22.10;89.00;;;;;;5114662;27;20210;-64
2022/06/21 02:26:41;;;;;;;3.53;2.20;;;22.20;89.10;;;;;;5114024;28;20668;-64
2022/06/21 02:29:10;;;;;;;1.97;1.70;;;22.20;89.00;;;;;;5113914;28;20214;-63
2022/06/21 02:31:37;;;;;;;2.10;1.83;;;22.20;89.10;;;;;;5113713;28;20688;-64
2022/06/21 02:34:12;;;;;;;4.20;2.00;;;22.30;88.90;;;;;;5113261;28;20251;-66
2022/06/21 02:36:47;;;;;;;3.40;2.03;;;22.30;90.00;;;;;;5124649;27;20257;-64
2022/06/21 02:39:17;;;;;;;2.90;1.90;;;22.30;89.00;;;;;;5134375;27;20195;-65
2022/06/21 02:41:50;;;;;;;4.03;1.90;;;22.40;89.20;;;;;;5133774;27;20222;-65
2022/06/21 02:44:24;;;;;;;2.37;2.00;;;22.40;88.80;;;;;;5133969;27;20290;-65
2022/06/21 02:46:55;;;;;;;2.60;2.10;;;22.40;88.30;;;;;;5133695;27;20221;-64
2022/06/21 02:49:25;;;;;;;3.80;2.57;;;22.50;88.40;;;;;;5134098;27;20187;-64
2022/06/21 02:52:02;;;;;;;4.03;2.60;;;22.50;88.40;;;;;;5127266;27;20250;-65
2022/06/21 02:54:35;;;;;;;4.37;2.03;;;22.60;88.40;;;;;;5134066;27;20528;-64
2022/06/21 02:57:08;;;;;;;2.47;2.00;;;22.60;88.40;;;;;;5132552;27;20747;-65
2022/06/21 02:59:39;;;;;;;4.60;2.20;;;22.70;88.40;;;;;;5134062;27;20207;-64
2022/06/21 03:02:09;;;;;;;3.67;2.30;;;22.70;88.60;;;;;;5133694;27;20381;-65
2022/06/21 03:04:39;;;;;;;4.67;2.00;;;22.70;88.50;;;;;;5133788;27;20197;-64
2022/06/21 03:07:08;;;;;;;4.77;2.10;;;22.80;88.70;;;;;;5128189;27;20365;-64
2022/06/21 03:09:36;;;;;;;3.23;2.47;;;22.80;88.40;;;;;;5133756;27;20624;-63
2022/06/21 03:12:06;;;;;;;3.17;2.37;;;22.90;88.50;;;;;;5133120;27;20225;-65
2022/06/21 03:14:37;;;;;;;3.10;2.10;;;22.90;88.60;;;;;;5133453;27;20207;-64
2022/06/21 03:17:09;;;;;;;3.23;2.10;;;23.00;88.90;;;;;;5133725;27;20612;-64
2022/06/21 03:19:39;;;;;;;5.17;3.70;;;23.00;88.90;;;;;;5133588;27;20597;-64
2022/06/21 03:22:16;;;;;;;4.70;2.60;;;23.00;89.20;;;;;;5131498;27;20626;-64
2022/06/21 03:24:44;;;;;;;5.60;2.47;;;23.10;89.30;;;;;;5132949;27;20213;-64
2022/06/21 03:27:19;;;;;;;3.53;2.50;;;23.10;89.50;;;;;;5126674;27;20211;-64
2022/06/21 03:29:47;;;;;;;4.90;2.20;;;23.10;90.10;;;;;;5133158;27;20188;-64
2022/06/21 03:32:14;;;;;;;3.27;2.50;;;23.20;90.10;;;;;;5132534;27;20774;-64
2022/06/21 03:34:42;;;;;;;3.53;2.33;;;23.20;90.00;;;;;;5131906;27;20209;-64
2022/06/21 03:37:09;;;;;;;4.33;2.23;;;23.30;89.80;;;;;;5132723;27;20235;-64
2022/06/21 03:42:28;;;;;;;4.63;2.40;;;23.40;89.80;;;;;;5128114;27;20232;-64
2022/06/21 03:45:01;;;;;;;4.70;2.30;;;23.40;89.70;;;;;;5132233;27;20258;-64
2022/06/21 03:47:31;;;;;;;3.97;2.20;;;23.50;89.70;;;;;;5132942;27;20273;-65
2022/06/21 03:50:03;;;;;;;4.67;2.30;;;23.50;89.50;;;;;;5131381;27;20234;-63
2022/06/21 03:52:43;;;;;;;3.00;2.00;;;23.50;89.50;;;;;;5132571;27;20210;-65
2022/06/21 03:55:25;;;;;;;4.57;2.30;;;23.50;89.70;;;;;;5133301;27;20636;-64
2022/06/21 03:57:57;;;;;;;5.20;2.50;;;23.60;90.00;;;;;;5132372;27;20194;-65
2022/06/21 04:00:30;;;;;;;4.60;2.40;;;23.60;90.10;;;;;;5128007;27;20201;-65
2022/06/21 04:03:02;;;;;;;5.13;2.43;;;23.60;90.00;;;;;;5127703;27;20182;-65
2022/06/21 04:05:35;;;;;;;6.63;3.27;;;23.60;89.70;;;;;;5126838;27;20295;-67
2022/06/21 04:08:05;;;;;;;4.10;2.27;;;23.70;90.00;;;;;;5132662;27;20588;-64
2022/06/21 04:10:37;;;;;;;3.20;2.60;;;23.80;89.50;;;;;;5132569;27;20215;-64
2022/06/21 04:13:11;;;;;;;4.70;3.10;;;23.80;89.70;;;;;;5132253;27;20219;-64
2022/06/21 04:15:47;;;;;;;4.83;2.93;;;23.90;90.10;;;;;;5132530;27;20197;-65
2022/06/21 04:18:19;;;;;;;5.90;2.70;;;24.00;90.10;;;;;;5129647;27;20713;-64
2022/06/21 04:20:53;;;;;;;2.67;2.13;;;24.00;90.00;;;;;;5121705;27;20207;-65
2022/06/21 04:23:27;;;;;;;4.67;2.23;;;24.10;89.90;;;;;;5132658;27;20553;-63
2022/06/21 04:25:59;;;;;;;3.50;2.10;;;24.10;90.30;;;;;;5132006;27;20533;-64
2022/06/21 04:28:32;;;;;;;4.83;2.20;;;24.10;89.60;;;;;;5132391;27;20188;-65
2022/06/21 04:31:03;;;;;;;3.60;2.07;;;24.10;90.00;;;;;;5132299;27;20707;-64
2022/06/21 04:33:35;;;;;;;4.40;2.30;;;24.20;89.50;;;;;;5131936;27;20189;-64
2022/06/21 04:36:07;;;;;;;6.97;2.60;;;24.20;89.20;;;;;;5124077;27;20246;-66
2022/06/21 04:38:38;;;;;;;3.80;2.30;;;24.20;89.20;;;;;;5131927;27;20218;-65
2022/06/21 04:41:11;;;;;;;4.47;1.87;;;24.10;89.40;;;;;;5122333;27;20216;-64
2022/06/21 04:43:42;;;;;;;3.27;2.30;;;24.20;89.60;;;;;;5133604;27;20205;-64
2022/06/21 04:46:17;;;;;;;3.40;2.40;;;24.20;89.90;;;;;;5136090;27;20190;-65
2022/06/21 04:48:49;;;;;;;4.70;2.40;;;24.30;90.00;;;;;;5136377;27;20694;-64
2022/06/21 04:51:21;;;;;;;3.03;2.20;;;24.30;90.20;;;;;;5136273;27;20685;-64
2022/06/21 04:53:54;;;;;;;3.20;2.20;;;24.40;90.20;;;;;;5136219;27;20224;-65
2022/06/21 04:56:33;;;;;;;3.17;2.30;;;24.50;90.30;;;;;;5136174;27;20188;-65
2022/06/21 04:59:01;;;;;;;5.03;2.30;;;24.50;90.10;;;;;;5122754;27;20201;-66
2022/06/21 05:01:33;;;;;;;4.13;2.80;;;24.50;90.00;;;;;;5135600;27;20201;-65
2022/06/21 05:04:04;;;;;;;3.07;2.27;;;24.50;90.20;;;;;;5136276;27;20317;-64
2022/06/21 05:06:31;;;;;;;2.60;2.17;;;24.60;90.20;;;;;;5136030;27;20279;-64
2022/06/21 05:08:59;;;;;;;3.97;2.30;;;24.60;90.40;;;;;;5135996;27;20571;-64
2022/06/21 05:11:26;;;;;;;4.07;2.30;;;24.60;90.50;;;;;;5135495;27;20299;-64
2022/06/21 05:13:55;;;;;;;10.77;2.40;;;24.70;90.50;;;;;;5134361;27;20621;-66
2022/06/21 05:16:26;;;;;;;4.27;2.40;;;24.80;90.50;;;;;;5135530;27;20241;-65
2022/06/21 05:18:57;;;;;;;4.37;2.70;;;24.90;90.50;;;;;;5135955;27;20477;-65
2022/06/21 05:21:32;;;;;;;3.83;2.50;;;24.90;90.50;;;;;;5135798;27;20275;-65
2022/06/21 05:24:00;;;;;;;4.20;2.40;;;24.90;90.60;;;;;;5135581;27;20201;-64
2022/06/21 05:26:34;;;;;;;6.30;2.50;;;25.00;91.00;;;;;;5135744;27;20297;-64
2022/06/21 05:29:07;;;;;;;3.43;2.67;;;25.10;90.80;;;;;;5122551;27;21037;-64
2022/06/21 05:31:39;;;;;;;2.90;2.13;;;25.20;90.90;;;;;;5125939;27;20281;-64
2022/06/21 05:34:15;;;;;;;4.07;2.47;;;25.30;90.80;;;;;;5126855;27;20225;-65
2022/06/21 05:36:52;;;;;;;6.67;3.10;;;25.40;90.70;;;;;;5131020;27;20597;-65
2022/06/21 05:39:23;;;;;;;7.30;2.50;;;25.40;90.90;;;;;;5132237;27;20194;-64
2022/06/21 05:41:53;;;;;;;7.70;2.93;;;25.50;91.20;;;;;;5123243;27;20657;-66
2022/06/21 05:44:23;;;;;;;5.53;2.80;;;25.60;90.90;;;;;;5121463;27;20297;-63
2022/06/21 05:46:55;;;;;;;5.43;2.60;;;25.60;90.80;;;;;;5133976;27;20213;-63
2022/06/21 05:49:27;;;;;;;6.23;3.17;;;25.70;90.80;;;;;;5134837;27;20226;-66
2022/06/21 05:51:56;;;;;;;6.23;3.20;;;25.70;90.70;;;;;;5122612;27;20225;-64
2022/06/21 05:54:29;;;;;;;6.65;2.85;;;25.70;90.80;;;;;;5126248;27;20291;-65
2022/06/21 05:56:56;;;;;;;4.73;2.70;;;25.70;90.80;;;;;;5094049;28;20284;-64
2022/06/21 05:59:25;;;;;;;5.47;2.60;;;25.70;91.10;;;;;;5094021;28;20222;-64
2022/06/21 06:01:58;;;;;;;4.37;2.73;;;25.70;91.10;;;;;;5093809;28;20347;-63
2022/06/21 06:04:32;;;;;;;4.70;2.57;;;25.80;91.30;;;;;;5093795;28;20226;-65
2022/06/21 06:07:00;;;;;;;9.57;2.90;;;25.80;91.30;;;;;;5133522;27;20210;-65
2022/06/21 06:09:30;;;;;;;6.10;2.60;;;25.80;91.40;;;;;;5134890;27;20296;-67
2022/06/21 06:12:01;;;;;;;4.47;2.70;;;25.90;91.70;;;;;;5134616;27;20745;-64
2022/06/21 06:14:34;;;;;;;4.63;2.53;;;26.00;91.70;;;;;;5134399;27;20228;-65
2022/06/21 06:17:04;;;;;;;4.03;2.70;;;26.00;91.80;;;;;;5134810;27;20278;-65
2022/06/21 06:19:38;;;;;;;4.53;3.00;;;26.10;92.00;;;;;;5134424;27;20208;-65
2022/06/21 06:22:15;;;;;;;4.43;2.88;;;26.20;92.20;;;;;;5112373;27;20285;-66
2022/06/21 06:24:46;;;;;;;5.93;2.92;;;26.30;92.30;;;;;;5124185;27;20230;-66
2022/06/21 06:27:34;;;;;;;6.80;3.13;;;26.30;92.50;;;;;;5134587;27;20243;-66
2022/06/21 06:30:05;;;;;;;5.97;3.10;;;26.40;92.60;;;;;;5134503;27;20198;-64
2022/06/21 06:32:40;;;;;;;6.28;3.35;;;26.40;92.60;;;;;;5127151;27;20745;-65
2022/06/21 06:35:18;;;;;;;6.95;3.10;;;26.50;92.60;;;;;;5134635;27;20709;-67
2022/06/21 06:37:45;;;;;;;5.20;3.10;;;26.50;92.60;;;;;;5134625;27;20190;-64
2022/06/21 06:40:21;;;;;;;5.43;3.22;;;26.60;92.90;;;;;;5134043;27;20208;-64
2022/06/21 06:42:51;;;;;;;7.43;3.25;;;26.60;93.10;;;;;;5134319;27;20193;-64
2022/06/21 06:45:21;;;;;;;7.32;3.50;;;26.70;93.20;;;;;;5133902;27;20204;-65
2022/06/21 06:47:52;;;;;;;6.43;3.70;;;26.70;93.10;;;;;;5126228;27;20238;-65
2022/06/21 06:50:24;;;;;;;6.72;3.70;;;26.80;93.20;;;;;;5134104;27;20552;-65
2022/06/21 06:52:56;;;;;;;7.43;3.83;;;26.90;93.60;;;;;;5133956;27;20212;-66
2022/06/21 06:55:29;;;;;;;7.05;3.47;;;26.90;93.70;;;;;;5133887;27;20193;-66
2022/06/21 06:58:00;;;;;;;7.85;3.47;;;27.00;93.80;;;;;;5133918;27;20276;-64
2022/06/21 07:00:31;;;;;;;6.13;3.50;;;27.00;93.90;;;;;;5134234;27;20997;-66
2022/06/21 07:03:04;;;;;;;5.25;3.80;;;27.10;93.80;;;;;;5113710;27;20560;-65
2022/06/21 07:05:37;;;;;;;6.70;3.78;;;27.20;93.60;;;;;;5126810;27;20202;-64
2022/06/21 07:08:14;;;;;;;4.75;3.38;;;27.20;93.60;;;;;;5133932;27;20626;-67
2022/06/21 07:10:42;;;;;;;6.13;3.60;;;27.30;93.70;;;;;;5133887;27;20697;-66
2022/06/21 07:13:10;;;;;;;8.20;3.60;;;27.30;93.90;;;;;;5133319;27;20569;-65
2022/06/21 07:15:41;;;;;;;5.40;3.22;;;27.40;94.30;;;;;;5133470;27;20200;-66
2022/06/21 07:18:14;;;;;;;8.07;3.70;;;27.60;94.10;;;;;;5129605;27;20643;-66
2022/06/21 07:20:44;;;;;;;5.78;3.72;;;27.60;94.10;;;;;;5132105;27;20200;-65
2022/06/21 07:23:14;;;;;;;6.53;3.70;;;27.70;94.10;;;;;;5133408;27;20651;-65
2022/06/21 07:25:44;;;;;;;8.35;4.00;;;27.70;94.00;;;;;;5128527;27;20559;-66
2022/06/21 07:28:16;;;;;;;8.00;3.88;;;27.80;94.00;;;;;;5132002;27;20231;-66
2022/06/21 07:30:47;;;;;;;11.65;4.13;;;27.90;94.20;;;;;;5117579;27;20201;-66
2022/06/21 07:33:20;;;;;;;7.75;4.30;;;28.00;94.20;;;;;;5110505;28;20213;-67
2022/06/21 07:35:53;;;;;;;5.57;4.00;;;28.00;93.80;;;;;;5112423;28;20232;-65
2022/06/21 07:38:29;;;;;;;6.47;3.70;;;28.00;93.80;;;;;;5109685;28;20198;-65
2022/06/21 07:41:02;;;;;;;5.38;4.00;;;28.10;94.30;;;;;;5112194;28;20233;-69
2022/06/21 07:43:33;;;;;;;10.43;4.00;;;28.10;93.90;;;;;;5112666;27;20547;-65
2022/06/21 07:46:03;;;;;;;9.38;3.80;;;28.20;93.90;;;;;;5112461;28;20605;-67
2022/06/21 07:48:38;;;;;;;8.43;3.78;;;28.30;94.00;;;;;;5112398;28;20700;-65
2022/06/21 07:51:10;;;;;;;10.32;4.20;;;28.30;93.80;;;;;;5112011;28;20192;-71
2022/06/21 07:53:44;;;;;;;7.72;4.13;;;28.30;93.70;;;;;;5112187;28;20598;-68
2022/06/21 07:56:16;;;;;;;7.30;4.05;;;28.20;93.80;;;;;;5128381;27;20297;-64
2022/06/21 07:58:49;;;;;;;6.32;3.65;;;28.20;93.50;;;;;;5132381;27;20189;-66
2022/06/21 08:07:05;;;;;;;8.90;4.10;;;28.20;93.70;;;;;;5132185;27;20818;-65
2022/06/21 08:09:39;;;;;;;6.10;3.65;;;28.30;93.60;;;;;;5127250;27;20295;-68
2022/06/21 08:12:08;;;;;;;10.90;4.20;;;28.30;93.70;;;;;;5115133;27;20195;-68
2022/06/21 08:14:35;;;;;;;8.65;3.45;;;28.40;93.80;;;;;;5115760;27;20204;-66
2022/06/21 08:17:09;;;;;;;5.47;3.72;;;28.50;93.70;;;;;;5111652;28;20317;-67
2022/06/21 08:19:41;;;;;;;8.68;4.07;;;28.50;93.60;;;;;;5112233;28;20255;-68
2022/06/21 08:22:14;;;;;;;9.25;3.90;;;28.60;93.40;;;;;;5112160;28;20196;-67
2022/06/21 08:24:50;;;;;;;11.75;3.92;;;28.70;93.30;;;;;;5111901;28;20205;-70
2022/06/21 08:27:22;;;;;;;5.53;3.47;;;28.80;92.90;;;;;;5112915;27;20210;-69
2022/06/21 08:29:56;;;;;;;9.65;3.78;;;28.80;92.50;;;;;;5125635;27;20197;-70
2022/06/21 08:32:32;;;;;;;6.25;3.33;;;28.80;92.70;;;;;;5112212;28;20639;-72
2022/06/21 08:35:05;;;;;;;6.20;2.80;;;28.90;91.60;;;;;;5128347;28;20204;-69
2022/06/21 08:37:40;;;;;;;7.13;3.00;;;28.90;91.80;;;;;;5132282;27;20326;-67
2022/06/21 08:40:34;;;;;;;6.38;3.03;;;29.00;92.20;;;;;;5132050;27;20182;-68
2022/06/21 08:43:28;;;;;;;5.85;3.25;;;29.10;91.80;;;;;;5132102;27;20187;-67
2022/06/21 08:46:21;;;;;;;5.72;3.70;;;29.20;91.60;;;;;;5125306;27;20203;-66
2022/06/21 08:49:00;;;;;;;4.95;3.63;;;29.30;92.20;;;;;;5111884;28;20241;-67
2022/06/21 08:51:57;;;;;;;8.63;4.00;;;29.40;92.80;;;;;;5111515;28;20187;-67
2022/06/21 08:54:40;;;;;;;7.47;3.55;;;29.50;91.90;;;;;;5111547;28;20668;-67
2022/06/21 08:57:14;;;;;;;7.72;3.55;;;29.70;91.80;;;;;;5111516;28;20225;-67
2022/06/21 08:59:52;;;;;;;7.68;3.63;;;29.80;91.40;;;;;;5111524;28;20282;-67
2022/06/21 09:02:29;;;;;;;5.57;3.10;;;29.80;91.30;;;;;;5111791;28;20217;-68
2022/06/21 09:05:10;;;;;;;8.55;3.58;;;29.80;91.20;;;;;;5091144;28;20626;-71
2022/06/21 09:08:15;;;;;;;7.90;4.07;;;29.90;91.20;;;;;;5100296;28;20604;-68
2022/06/21 09:10:58;;;;;;;5.85;3.70;;;29.80;91.10;;;;;;5107860;28;20202;-68
2022/06/21 09:13:40;;;;;;;7.43;3.42;;;29.80;91.20;;;;;;5122212;27;20255;-68
2022/06/21 09:16:17;;;;;;;6.63;3.33;;;29.90;91.20;;;;;;5130647;27;20229;-69
2022/06/21 09:18:55;;;;;;;4.63;3.13;;;30.00;91.00;;;;;;5129556;28;20206;-66
2022/06/21 09:21:27;;;;;;;9.00;3.50;;;30.00;90.50;;;;;;5107544;27;20636;-65
2022/06/21 09:24:01;;;;;;;8.70;3.05;;;30.10;90.50;;;;;;5111901;28;20608;-65
2022/06/21 09:26:44;;;;;;;5.50;3.30;;;30.20;90.80;;;;;;5106285;28;20208;-65
2022/06/21 09:29:24;;;;;;;4.60;2.72;;;30.30;90.80;;;;;;5114448;28;20203;-65
2022/06/21 09:32:04;;;;;;;7.30;3.05;;;30.40;90.30;;;;;;5111151;27;20195;-66
2022/06/21 09:34:42;;;;;;;6.80;3.05;;;30.50;90.10;;;;;;5112705;27;20221;-66
2022/06/21 09:37:20;;;;;;;6.35;3.40;;;30.60;90.20;;;;;;5108786;28;20237;-68
2022/06/21 09:39:53;;;;;;;7.10;3.50;;;30.60;90.00;;;;;;5115851;27;20222;-65
2022/06/21 09:42:29;;;;;;;7.60;3.15;;;30.60;90.00;;;;;;5120801;27;20270;-66
2022/06/21 09:45:07;;;;;;;4.60;3.00;;;30.50;90.10;;;;;;5114073;27;20213;-66
2022/06/21 09:47:44;;;;;;;4.57;3.10;;;30.40;90.40;;;;;;5103554;28;20314;-64
2022/06/21 09:50:21;;;;;;;8.32;3.10;;;30.50;90.60;;;;;;5114744;28;20229;-62
2022/06/21 09:52:58;;;;;;;6.72;3.33;;;30.60;90.40;;;;;;5129795;27;20195;-66
2022/06/21 09:55:32;;;;;;;8.20;3.63;;;30.50;90.80;;;;;;5117197;27;20736;-66
2022/06/21 09:58:08;;;;;;;6.13;3.45;;;30.30;90.60;;;;;;5114538;28;20191;-67
2022/06/21 10:00:41;;;;;;;12.50;4.50;;;30.00;91.00;;;;;;5114545;28;20218;-65
2022/06/21 10:03:19;;;;;;;6.97;3.40;;;29.70;91.70;;;;;;5114453;28;20273;-65
2022/06/21 10:05:51;;;;;;;8.40;3.60;;;29.40;92.30;;;;;;5114408;28;20689;-65
2022/06/21 10:08:35;;;;;;;9.80;3.65;;;29.20;92.90;;;;;;5114288;28;20222;-66
2022/06/21 10:11:14;;;;;;;14.35;4.47;;;29.00;93.60;;;;;;5114278;28;20671;-68
2022/06/21 10:14:08;;;;;;;10.48;4.60;;;28.60;94.30;;;;;;5114305;28;20208;-66
2022/06/21 10:17:02;;;;;;;7.15;3.90;;;28.30;95.00;;;;;;5114475;28;20592;-65
2022/06/21 10:19:39;;;;;;;8.88;4.00;;;28.10;95.30;;;;;;5113964;28;20205;-64
2022/06/21 10:22:23;;;;;;;11.30;3.85;;;27.90;95.70;;;;;;5094178;28;20555;-68
2022/06/21 10:25:19;;;;;;;7.07;4.18;;;27.80;95.90;;;;;;5093542;28;20255;-64
2022/06/21 10:28:12;;;;;;;10.38;4.15;;;27.70;96.30;;;;;;5097638;28;20288;-65
2022/06/21 10:31:17;;;;;;;8.75;4.20;;;27.30;96.80;;;;;;5113994;28;20242;-66
2022/06/21 10:34:21;;;;;;;9.80;4.15;;;26.90;97.40;;;;;;5102969;28;20225;-65
2022/06/21 10:37:03;;;;;;;9.82;3.95;;;26.80;97.60;;;;;;5113708;28;20248;-65
2022/06/21 10:40:10;;;;;;;8.38;4.07;;;26.70;97.70;;;;;;5119674;27;20238;-65
2022/06/21 10:42:56;;;;;;;6.88;4.10;;;26.60;97.40;;;;;;5105048;27;20698;-64
2022/06/21 10:45:39;;;;;;;6.65;4.05;;;26.50;97.70;;;;;;5112453;28;20263;-65
2022/06/21 10:48:29;;;;;;;9.68;4.50;;;26.40;98.00;;;;;;5131958;27;20204;-65
2022/06/21 10:51:06;;;;;;;13.90;4.68;;;26.20;98.70;;;;;;5118618;27;20262;-66
2022/06/21 10:53:53;;;;;;;8.68;4.72;;;26.10;98.80;;;;;;5113246;28;20292;-64
2022/06/21 11:01:16;;;;;;;11.48;4.75;;;26.00;99.30;;;;;;5112464;27;20202;-69
2022/06/21 11:02:27;;;;;;;7.70;4.80;;;25.90;99.50;;;;;;5108661;27;20200;-70
2022/06/21 11:05:03;;;;;;;9.47;5.23;;;25.90;99.80;;;;;;5121965;27;20249;-71
2022/06/21 11:07:37;;;;;;;10.63;5.32;;;25.90;99.90;;;;;;5119377;27;20641;-67
2022/06/21 11:10:09;;;;;;;6.97;5.10;;;25.90;99.90;;;;;;5133813;27;20206;-75
2022/06/21 11:12:56;;;;;;;9.57;5.10;;;25.80;99.90;;;;;;5134146;27;20189;-72
2022/06/21 11:15:33;;;;;;;8.50;4.97;;;25.90;99.90;;;;;;5133638;27;20234;-68
2022/06/21 11:18:10;;;;;;;13.90;5.93;;;25.80;99.90;;;;;;5134037;27;20280;-68
2022/06/21 11:20:45;;;;;;;8.57;5.60;;;25.80;99.90;;;;;;5127240;27;20204;-67
2022/06/21 11:23:26;;;;;;;9.30;5.70;;;25.70;99.90;;;;;;5133549;27;20225;-68
2022/06/21 11:26:00;;;;;;;13.33;6.37;;;25.60;99.90;;;;;;5126687;27;20285;-67
2022/06/21 11:28:37;;;;;;;12.97;6.87;;;25.40;99.90;;;;;;5134323;27;20183;-69
2022/06/21 17:18:10;;;;;;;3.90;1.87;;;20.00;99.90;;;;;;4952348;28;20574;-77
2022/06/21 17:20:59;;;;;;;6.30;2.30;;;20.00;99.90;;;;;;4964848;28;20206;-75
2022/06/21 17:24:00;;;;;;;2.27;1.63;;;20.00;99.90;;;;;;5005117;28;20285;-77
2022/06/21 17:26:40;;;;;;;2.40;1.93;;;19.90;99.90;;;;;;5002487;28;20210;-75
2022/06/21 17:29:12;;;;;;;5.13;3.00;;;20.00;99.90;;;;;;5008556;28;20196;-75
2022/06/21 17:31:48;;;;;;;3.50;2.00;;;19.90;99.90;;;;;;4992756;28;20282;-74
2022/06/21 17:34:26;;;;;;;5.20;2.13;;;19.90;99.90;;;;;;4993968;28;20207;-75
2022/06/21 17:37:03;;;;;;;4.20;2.00;;;19.90;99.90;;;;;;4981694;28;20204;-75
2022/06/21 17:39:39;;;;;;;3.27;1.90;;;19.80;99.90;;;;;;4983243;28;20226;-74
2022/06/21 17:42:13;;;;;;;5.67;2.10;;;19.80;99.90;;;;;;4995902;28;20288;-74
2022/06/21 17:44:45;;;;;;;3.23;2.33;;;19.70;99.90;;;;;;5000525;28;20192;-74
2022/06/21 17:47:16;;;;;;;2.40;1.80;;;19.70;99.90;;;;;;4994835;28;20275;-74
2022/06/21 17:49:50;;;;;;;4.17;2.00;;;19.60;99.90;;;;;;4994612;28;20274;-74
2022/06/21 17:52:22;;;;;;;2.57;1.77;;;19.50;99.90;;;;;;4993816;28;20293;-74
2022/06/21 17:54:53;;;;;;;3.87;1.90;;;19.40;99.90;;;;;;4994047;28;20198;-69
2022/06/21 17:57:25;;;;;;;2.77;2.00;;;19.30;99.90;;;;;;4994459;28;20623;-68
2022/06/21 17:59:52;;;;;;;3.63;1.93;;;19.20;99.90;;;;;;4994024;28;20230;-67
2022/06/21 18:02:32;;;;;;;3.47;1.80;;;19.10;99.90;;;;;;4991603;28;20669;-68
2022/06/21 18:05:07;;;;;;;11.33;2.20;;;19.10;99.90;;;;;;4994049;28;20200;-68
2022/06/21 18:07:44;;;;;;;3.33;1.90;;;19.00;99.90;;;;;;4994299;28;20294;-67
2022/06/21 18:10:21;;;;;;;7.13;2.80;;;18.90;99.90;;;;;;4994389;28;20273;-68
2022/06/21 18:12:58;;;;;;;13.03;2.23;;;18.80;99.90;;;;;;4992991;28;20231;-68
2022/06/21 18:15:32;;;;;;;2.57;1.80;;;18.80;99.90;;;;;;4994831;28;20765;-68
2022/06/21 18:18:08;;;;;;;4.23;1.90;;;18.70;99.90;;;;;;4994168;28;20598;-70
2022/06/21 18:20:42;;;;;;;3.67;2.33;;;18.60;99.90;;;;;;4994024;28;20270;-67
2022/06/21 18:23:17;;;;;;;2.87;2.23;;;18.50;99.90;;;;;;4992826;28;20217;-66
2022/06/21 18:25:49;;;;;;;3.07;1.73;;;18.50;99.90;;;;;;4994138;28;20301;-67
2022/06/21 18:28:34;;;;;;;2.20;1.93;;;18.40;99.90;;;;;;4994229;28;20254;-66
2022/06/21 18:31:12;;;;;;;17.53;2.00;;;18.40;99.90;;;;;;4993879;28;20285;-68
2022/06/21 18:33:39;;;;;;;8.13;2.20;;;18.20;99.90;;;;;;4992809;28;20219;-67
2022/06/21 18:36:26;;;;;;;4.10;1.83;;;18.20;99.90;;;;;;4993276;28;20346;-67
2022/06/21 18:39:02;;;;;;;3.40;1.87;;;18.20;99.90;;;;;;4992369;28;20314;-68
2022/06/21 18:41:35;;;;;;;3.77;1.90;;;18.20;99.90;;;;;;4992430;28;20600;-68
2022/06/21 18:44:10;;;;;;;6.83;2.03;;;18.10;99.90;;;;;;4987598;28;20292;-67
2022/06/21 18:46:48;;;;;;;4.93;2.37;;;18.00;99.90;;;;;;4983367;28;20648;-67
2022/06/21 18:49:29;;;;;;;4.50;1.97;;;18.00;99.90;;;;;;4993680;28;20190;-66
2022/06/21 18:52:06;;;;;;;1.80;1.70;;;17.90;99.90;;;;;;4992445;28;20259;-66
2022/06/21 18:54:48;;;;;;;3.83;2.07;;;17.80;99.90;;;;;;4993460;28;20756;-66
2022/06/21 18:57:24;;;;;;;2.63;2.10;;;17.80;99.90;;;;;;4993481;28;20734;-67
2022/06/21 19:00:03;;;;;;;3.37;2.20;;;17.70;99.90;;;;;;4993036;28;20234;-65
2022/06/21 19:02:35;;;;;;;3.80;2.50;;;17.60;99.90;;;;;;4991742;28;20241;-66
2022/06/21 19:08:29;;;;;;;2.50;1.53;;;17.60;99.90;;;;;;4993472;28;20178;-66
2022/06/21 19:11:08;;;;;;;2.33;1.80;;;17.50;99.90;;;;;;4990661;28;20200;-65
2022/06/21 19:13:39;;;;;;;4.17;1.90;;;17.40;99.90;;;;;;4991856;28;20264;-67
2022/06/21 19:16:17;;;;;;;3.00;1.80;;;17.40;99.90;;;;;;4992961;28;20691;-67
2022/06/21 19:19:15;;;;;;;3.50;2.00;;;17.40;99.90;;;;;;4993096;28;20192;-66
2022/06/21 19:21:49;;;;;;;2.20;2.00;;;17.40;99.90;;;;;;4991824;28;20204;-66
2022/06/21 19:24:34;;;;;;;2.17;1.83;;;17.40;99.90;;;;;;4992948;28;20641;-65
2022/06/21 19:27:10;;;;;;;5.10;2.23;;;17.40;99.90;;;;;;4991773;28;20263;-66